sensor_id;sensor_type;location;lat;lon;timestamp;P1;durP1;ratioP1;P2;durP2;ratioP2
53044;SDS011;38930;52.766;6.884;2023-05-07T00:01:41;9.30;;;6.18;;
53044;SDS011;38930;52.766;6.884;2023-05-07T00:04:07;11.02;;;6.40;;
53044;SDS011;38930;52.766;6.884;2023-05-07T00:06:33;8.60;;;6.20;;
53044;SDS011;38930;52.766;6.884;2023-05-07T00:08:59;11.80;;;7.33;;
53044;SDS011;38930;52.766;6.884;2023-05-07T00:11:25;10.18;;;6.60;;
53044;SDS011;38930;52.766;6.884;2023-05-07T00:13:52;12.55;;;7.15;;
53044;SDS011;38930;52.766;6.884;2023-05-07T00:16:18;13.37;;;7.53;;
53044;SDS011;38930;52.766;6.884;2023-05-07T00:18:43;10.32;;;6.90;;
53044;SDS011;38930;52.766;6.884;2023-05-07T00:21:10;10.82;;;7.90;;
53044;SDS011;38930;52.766;6.884;2023-05-07T00:23:35;13.00;;;8.43;;
53044;SDS011;38930;52.766;6.884;2023-05-07T00:26:01;10.73;;;7.93;;
53044;SDS011;38930;52.766;6.884;2023-05-07T00:28:27;12.90;;;8.17;;
53044;SDS011;38930;52.766;6.884;2023-05-07T00:30:53;12.23;;;8.67;;
53044;SDS011;38930;52.766;6.884;2023-05-07T00:33:18;13.23;;;8.63;;
53044;SDS011;38930;52.766;6.884;2023-05-07T00:35:45;11.52;;;8.45;;
53044;SDS011;38930;52.766;6.884;2023-05-07T00:38:11;10.10;;;7.70;;
53044;SDS011;38930;52.766;6.884;2023-05-07T00:40:37;12.02;;;8.90;;
53044;SDS011;38930;52.766;6.884;2023-05-07T00:43:02;12.45;;;8.98;;
53044;SDS011;38930;52.766;6.884;2023-05-07T00:45:29;11.75;;;8.45;;
53044;SDS011;38930;52.766;6.884;2023-05-07T00:47:55;11.60;;;8.18;;
53044;SDS011;38930;52.766;6.884;2023-05-07T00:50:24;13.35;;;8.98;;
53044;SDS011;38930;52.766;6.884;2023-05-07T00:52:51;13.05;;;9.05;;
53044;SDS011;38930;52.766;6.884;2023-05-07T00:55:17;12.33;;;8.17;;
53044;SDS011;38930;52.766;6.884;2023-05-07T00:57:42;13.03;;;8.43;;
53044;SDS011;38930;52.766;6.884;2023-05-07T01:00:09;12.32;;;8.55;;
53044;SDS011;38930;52.766;6.884;2023-05-07T01:02:37;15.30;;;8.80;;
53044;SDS011;38930;52.766;6.884;2023-05-07T01:05:04;14.10;;;9.02;;
53044;SDS011;38930;52.766;6.884;2023-05-07T01:07:31;13.02;;;9.48;;
53044;SDS011;38930;52.766;6.884;2023-05-07T01:09:58;12.68;;;8.93;;
53044;SDS011;38930;52.766;6.884;2023-05-07T01:14:51;15.43;;;9.27;;
53044;SDS011;38930;52.766;6.884;2023-05-07T01:17:17;14.67;;;9.73;;
53044;SDS011;38930;52.766;6.884;2023-05-07T01:19:43;14.32;;;9.50;;
53044;SDS011;38930;52.766;6.884;2023-05-07T01:22:09;13.50;;;9.30;;
53044;SDS011;38930;52.766;6.884;2023-05-07T01:24:39;15.50;;;10.02;;
53044;SDS011;38930;52.766;6.884;2023-05-07T01:27:06;14.52;;;9.35;;
53044;SDS011;38930;52.766;6.884;2023-05-07T01:29:32;14.60;;;10.20;;
53044;SDS011;38930;52.766;6.884;2023-05-07T01:31:58;13.67;;;9.33;;
53044;SDS011;38930;52.766;6.884;2023-05-07T01:34:25;16.38;;;10.88;;
53044;SDS011;38930;52.766;6.884;2023-05-07T01:36:54;15.60;;;10.65;;
53044;SDS011;38930;52.766;6.884;2023-05-07T01:39:26;16.33;;;10.90;;
53044;SDS011;38930;52.766;6.884;2023-05-07T01:41:54;14.60;;;10.65;;
53044;SDS011;38930;52.766;6.884;2023-05-07T01:44:21;16.42;;;10.80;;
53044;SDS011;38930;52.766;6.884;2023-05-07T01:46:47;17.23;;;10.15;;
53044;SDS011;38930;52.766;6.884;2023-05-07T01:49:14;16.80;;;10.27;;
53044;SDS011;38930;52.766;6.884;2023-05-07T01:54:06;16.50;;;11.00;;
53044;SDS011;38930;52.766;6.884;2023-05-07T01:58:58;19.25;;;12.25;;
53044;SDS011;38930;52.766;6.884;2023-05-07T02:01:24;16.40;;;10.80;;
53044;SDS011;38930;52.766;6.884;2023-05-07T02:03:50;18.40;;;11.00;;
53044;SDS011;38930;52.766;6.884;2023-05-07T02:06:15;17.35;;;11.70;;
53044;SDS011;38930;52.766;6.884;2023-05-07T02:08:41;18.52;;;11.68;;
53044;SDS011;38930;52.766;6.884;2023-05-07T02:11:07;20.27;;;12.67;;
53044;SDS011;38930;52.766;6.884;2023-05-07T02:13:33;17.38;;;11.70;;
53044;SDS011;38930;52.766;6.884;2023-05-07T02:15:59;18.13;;;12.32;;
53044;SDS011;38930;52.766;6.884;2023-05-07T02:18:25;19.33;;;12.73;;
53044;SDS011;38930;52.766;6.884;2023-05-07T02:20:51;20.67;;;11.82;;
53044;SDS011;38930;52.766;6.884;2023-05-07T02:23:16;19.17;;;12.47;;
53044;SDS011;38930;52.766;6.884;2023-05-07T02:25:42;22.00;;;13.07;;
53044;SDS011;38930;52.766;6.884;2023-05-07T02:28:08;21.10;;;12.98;;
53044;SDS011;38930;52.766;6.884;2023-05-07T02:30:33;21.23;;;13.23;;
53044;SDS011;38930;52.766;6.884;2023-05-07T02:32:59;21.33;;;12.80;;
53044;SDS011;38930;52.766;6.884;2023-05-07T02:35:25;21.27;;;12.50;;
53044;SDS011;38930;52.766;6.884;2023-05-07T02:37:51;21.88;;;13.85;;
53044;SDS011;38930;52.766;6.884;2023-05-07T02:40:16;19.73;;;12.88;;
53044;SDS011;38930;52.766;6.884;2023-05-07T02:42:42;21.63;;;12.60;;
53044;SDS011;38930;52.766;6.884;2023-05-07T02:45:07;20.30;;;13.48;;
53044;SDS011;38930;52.766;6.884;2023-05-07T02:47:34;23.10;;;14.10;;
53044;SDS011;38930;52.766;6.884;2023-05-07T02:50:00;21.30;;;13.15;;
53044;SDS011;38930;52.766;6.884;2023-05-07T02:52:25;22.73;;;14.03;;
53044;SDS011;38930;52.766;6.884;2023-05-07T02:54:51;22.80;;;14.02;;
53044;SDS011;38930;52.766;6.884;2023-05-07T02:57:16;23.48;;;14.68;;
53044;SDS011;38930;52.766;6.884;2023-05-07T02:59:42;24.45;;;14.35;;
53044;SDS011;38930;52.766;6.884;2023-05-07T03:02:08;23.38;;;13.82;;
53044;SDS011;38930;52.766;6.884;2023-05-07T03:04:34;23.58;;;14.80;;
53044;SDS011;38930;52.766;6.884;2023-05-07T03:06:59;27.15;;;15.15;;
53044;SDS011;38930;52.766;6.884;2023-05-07T03:09:25;27.03;;;14.90;;
53044;SDS011;38930;52.766;6.884;2023-05-07T03:11:51;29.83;;;14.63;;
53044;SDS011;38930;52.766;6.884;2023-05-07T03:14:16;23.13;;;14.65;;
53044;SDS011;38930;52.766;6.884;2023-05-07T03:16:42;25.40;;;15.73;;
53044;SDS011;38930;52.766;6.884;2023-05-07T03:19:07;27.58;;;15.23;;
53044;SDS011;38930;52.766;6.884;2023-05-07T03:21:33;27.80;;;15.48;;
53044;SDS011;38930;52.766;6.884;2023-05-07T03:23:59;25.88;;;14.50;;
53044;SDS011;38930;52.766;6.884;2023-05-07T03:26:25;27.73;;;15.27;;
53044;SDS011;38930;52.766;6.884;2023-05-07T03:28:51;26.80;;;15.07;;
53044;SDS011;38930;52.766;6.884;2023-05-07T03:31:17;23.42;;;14.52;;
53044;SDS011;38930;52.766;6.884;2023-05-07T03:33:49;26.87;;;15.57;;
53044;SDS011;38930;52.766;6.884;2023-05-07T03:36:20;21.88;;;14.93;;
53044;SDS011;38930;52.766;6.884;2023-05-07T03:38:45;23.67;;;14.52;;
53044;SDS011;38930;52.766;6.884;2023-05-07T03:41:11;20.00;;;13.63;;
53044;SDS011;38930;52.766;6.884;2023-05-07T03:43:37;23.15;;;14.20;;
53044;SDS011;38930;52.766;6.884;2023-05-07T03:46:02;23.02;;;14.55;;
53044;SDS011;38930;52.766;6.884;2023-05-07T03:48:28;24.23;;;15.07;;
53044;SDS011;38930;52.766;6.884;2023-05-07T03:50:54;20.25;;;13.93;;
53044;SDS011;38930;52.766;6.884;2023-05-07T03:53:20;27.42;;;15.73;;
53044;SDS011;38930;52.766;6.884;2023-05-07T03:55:46;22.27;;;13.68;;
53044;SDS011;38930;52.766;6.884;2023-05-07T03:58:11;24.60;;;13.88;;
53044;SDS011;38930;52.766;6.884;2023-05-07T04:00:37;23.30;;;15.23;;
53044;SDS011;38930;52.766;6.884;2023-05-07T04:03:04;23.80;;;14.95;;
53044;SDS011;38930;52.766;6.884;2023-05-07T04:05:30;21.13;;;13.70;;
53044;SDS011;38930;52.766;6.884;2023-05-07T04:07:57;22.27;;;14.13;;
53044;SDS011;38930;52.766;6.884;2023-05-07T04:10:23;21.00;;;13.10;;
53044;SDS011;38930;52.766;6.884;2023-05-07T04:12:49;20.23;;;13.43;;
53044;SDS011;38930;52.766;6.884;2023-05-07T04:15:14;24.65;;;14.00;;
53044;SDS011;38930;52.766;6.884;2023-05-07T04:17:40;20.23;;;12.85;;
53044;SDS011;38930;52.766;6.884;2023-05-07T04:20:08;23.48;;;13.45;;
53044;SDS011;38930;52.766;6.884;2023-05-07T04:22:35;23.70;;;14.18;;
53044;SDS011;38930;52.766;6.884;2023-05-07T04:25:01;20.17;;;12.93;;
53044;SDS011;38930;52.766;6.884;2023-05-07T04:27:27;19.45;;;12.95;;
53044;SDS011;38930;52.766;6.884;2023-05-07T04:29:53;20.17;;;12.75;;
53044;SDS011;38930;52.766;6.884;2023-05-07T04:32:21;18.20;;;13.30;;
53044;SDS011;38930;52.766;6.884;2023-05-07T04:34:47;20.57;;;12.70;;
53044;SDS011;38930;52.766;6.884;2023-05-07T04:37:12;19.60;;;12.33;;
53044;SDS011;38930;52.766;6.884;2023-05-07T04:39:38;17.08;;;11.77;;
53044;SDS011;38930;52.766;6.884;2023-05-07T04:42:04;20.70;;;12.18;;
53044;SDS011;38930;52.766;6.884;2023-05-07T04:44:32;21.48;;;13.25;;
53044;SDS011;38930;52.766;6.884;2023-05-07T04:46:58;17.27;;;12.17;;
53044;SDS011;38930;52.766;6.884;2023-05-07T04:49:23;21.67;;;12.43;;
53044;SDS011;38930;52.766;6.884;2023-05-07T04:51:49;19.35;;;11.70;;
53044;SDS011;38930;52.766;6.884;2023-05-07T04:54:15;21.88;;;13.50;;
53044;SDS011;38930;52.766;6.884;2023-05-07T04:56:40;17.23;;;12.27;;
53044;SDS011;38930;52.766;6.884;2023-05-07T04:59:06;19.42;;;11.13;;
53044;SDS011;38930;52.766;6.884;2023-05-07T05:01:32;18.10;;;12.18;;
53044;SDS011;38930;52.766;6.884;2023-05-07T05:03:58;18.13;;;12.27;;
53044;SDS011;38930;52.766;6.884;2023-05-07T05:06:25;20.63;;;11.95;;
53044;SDS011;38930;52.766;6.884;2023-05-07T05:08:51;19.85;;;12.65;;
53044;SDS011;38930;52.766;6.884;2023-05-07T05:11:16;21.98;;;12.55;;
53044;SDS011;38930;52.766;6.884;2023-05-07T05:13:42;29.35;;;11.90;;
53044;SDS011;38930;52.766;6.884;2023-05-07T05:16:08;19.85;;;12.27;;
53044;SDS011;38930;52.766;6.884;2023-05-07T05:18:34;18.42;;;12.20;;
53044;SDS011;38930;52.766;6.884;2023-05-07T05:20:59;16.93;;;12.33;;
53044;SDS011;38930;52.766;6.884;2023-05-07T05:23:25;16.90;;;12.52;;
53044;SDS011;38930;52.766;6.884;2023-05-07T05:25:55;20.57;;;12.10;;
53044;SDS011;38930;52.766;6.884;2023-05-07T05:28:22;17.33;;;11.90;;
53044;SDS011;38930;52.766;6.884;2023-05-07T05:30:48;19.03;;;12.10;;
53044;SDS011;38930;52.766;6.884;2023-05-07T05:33:14;16.02;;;11.18;;
53044;SDS011;38930;52.766;6.884;2023-05-07T05:35:39;18.83;;;12.70;;
53044;SDS011;38930;52.766;6.884;2023-05-07T05:38:05;16.35;;;11.25;;
53044;SDS011;38930;52.766;6.884;2023-05-07T05:40:31;18.77;;;12.07;;
53044;SDS011;38930;52.766;6.884;2023-05-07T05:42:57;17.55;;;11.65;;
53044;SDS011;38930;52.766;6.884;2023-05-07T05:45:22;20.13;;;11.93;;
53044;SDS011;38930;52.766;6.884;2023-05-07T05:47:48;17.13;;;11.75;;
53044;SDS011;38930;52.766;6.884;2023-05-07T05:50:14;18.33;;;12.63;;
53044;SDS011;38930;52.766;6.884;2023-05-07T05:52:39;21.88;;;12.27;;
53044;SDS011;38930;52.766;6.884;2023-05-07T05:55:06;18.33;;;12.00;;
53044;SDS011;38930;52.766;6.884;2023-05-07T05:57:31;19.10;;;12.63;;
53044;SDS011;38930;52.766;6.884;2023-05-07T05:59:57;18.00;;;11.82;;
53044;SDS011;38930;52.766;6.884;2023-05-07T06:02:26;18.50;;;12.70;;
53044;SDS011;38930;52.766;6.884;2023-05-07T06:04:51;19.60;;;12.23;;
53044;SDS011;38930;52.766;6.884;2023-05-07T06:07:17;16.80;;;12.23;;
53044;SDS011;38930;52.766;6.884;2023-05-07T06:09:43;18.70;;;13.27;;
53044;SDS011;38930;52.766;6.884;2023-05-07T06:12:09;20.80;;;12.97;;
53044;SDS011;38930;52.766;6.884;2023-05-07T06:14:34;19.30;;;12.77;;
53044;SDS011;38930;52.766;6.884;2023-05-07T06:17:00;21.42;;;13.38;;
53044;SDS011;38930;52.766;6.884;2023-05-07T06:19:25;21.80;;;13.50;;
53044;SDS011;38930;52.766;6.884;2023-05-07T06:21:54;20.17;;;13.88;;
53044;SDS011;38930;52.766;6.884;2023-05-07T06:24:21;19.30;;;12.63;;
53044;SDS011;38930;52.766;6.884;2023-05-07T06:26:47;22.03;;;13.97;;
53044;SDS011;38930;52.766;6.884;2023-05-07T06:29:13;19.80;;;12.80;;
53044;SDS011;38930;52.766;6.884;2023-05-07T06:31:38;22.67;;;12.77;;
53044;SDS011;38930;52.766;6.884;2023-05-07T06:34:07;19.13;;;12.23;;
53044;SDS011;38930;52.766;6.884;2023-05-07T06:36:33;20.45;;;14.15;;
53044;SDS011;38930;52.766;6.884;2023-05-07T06:39:01;18.70;;;12.67;;
53044;SDS011;38930;52.766;6.884;2023-05-07T06:41:27;21.48;;;13.60;;
53044;SDS011;38930;52.766;6.884;2023-05-07T06:43:52;22.43;;;13.33;;
53044;SDS011;38930;52.766;6.884;2023-05-07T06:46:18;22.23;;;13.45;;
53044;SDS011;38930;52.766;6.884;2023-05-07T06:48:44;21.40;;;14.13;;
53044;SDS011;38930;52.766;6.884;2023-05-07T06:51:09;18.67;;;13.63;;
53044;SDS011;38930;52.766;6.884;2023-05-07T06:53:35;21.02;;;13.00;;
53044;SDS011;38930;52.766;6.884;2023-05-07T06:56:00;22.67;;;14.07;;
53044;SDS011;38930;52.766;6.884;2023-05-07T06:58:26;22.85;;;13.73;;
53044;SDS011;38930;52.766;6.884;2023-05-07T07:00:52;20.48;;;14.18;;
53044;SDS011;38930;52.766;6.884;2023-05-07T07:03:17;21.63;;;13.82;;
53044;SDS011;38930;52.766;6.884;2023-05-07T07:05:43;23.88;;;14.85;;
53044;SDS011;38930;52.766;6.884;2023-05-07T07:08:09;21.58;;;13.70;;
53044;SDS011;38930;52.766;6.884;2023-05-07T07:10:35;23.58;;;14.38;;
53044;SDS011;38930;52.766;6.884;2023-05-07T07:13:01;20.60;;;14.23;;
53044;SDS011;38930;52.766;6.884;2023-05-07T07:15:26;20.00;;;13.70;;
53044;SDS011;38930;52.766;6.884;2023-05-07T07:17:52;23.70;;;15.48;;
53044;SDS011;38930;52.766;6.884;2023-05-07T07:20:17;21.08;;;13.63;;
53044;SDS011;38930;52.766;6.884;2023-05-07T07:22:43;20.95;;;13.98;;
53044;SDS011;38930;52.766;6.884;2023-05-07T07:25:09;19.65;;;13.05;;
53044;SDS011;38930;52.766;6.884;2023-05-07T07:30:01;21.42;;;13.90;;
53044;SDS011;38930;52.766;6.884;2023-05-07T07:32:27;20.25;;;13.15;;
53044;SDS011;38930;52.766;6.884;2023-05-07T07:34:53;21.70;;;13.27;;
53044;SDS011;38930;52.766;6.884;2023-05-07T07:37:18;19.35;;;13.45;;
53044;SDS011;38930;52.766;6.884;2023-05-07T07:39:44;22.58;;;13.18;;
53044;SDS011;38930;52.766;6.884;2023-05-07T07:42:10;21.05;;;13.07;;
53044;SDS011;38930;52.766;6.884;2023-05-07T07:44:35;19.88;;;12.40;;
53044;SDS011;38930;52.766;6.884;2023-05-07T07:47:01;19.43;;;12.80;;
53044;SDS011;38930;52.766;6.884;2023-05-07T07:49:26;20.57;;;13.73;;
53044;SDS011;38930;52.766;6.884;2023-05-07T07:51:52;19.93;;;12.73;;
53044;SDS011;38930;52.766;6.884;2023-05-07T07:54:18;19.08;;;12.30;;
53044;SDS011;38930;52.766;6.884;2023-05-07T07:56:43;15.85;;;11.52;;
53044;SDS011;38930;52.766;6.884;2023-05-07T07:59:09;19.02;;;12.38;;
53044;SDS011;38930;52.766;6.884;2023-05-07T08:01:35;18.97;;;13.13;;
53044;SDS011;38930;52.766;6.884;2023-05-07T08:04:00;20.33;;;11.83;;
53044;SDS011;38930;52.766;6.884;2023-05-07T08:06:28;18.48;;;13.13;;
53044;SDS011;38930;52.766;6.884;2023-05-07T08:08:54;20.47;;;12.67;;
53044;SDS011;38930;52.766;6.884;2023-05-07T08:11:20;17.77;;;11.85;;
53044;SDS011;38930;52.766;6.884;2023-05-07T08:13:46;16.98;;;12.30;;
53044;SDS011;38930;52.766;6.884;2023-05-07T08:16:12;21.08;;;12.95;;
53044;SDS011;38930;52.766;6.884;2023-05-07T08:18:38;16.98;;;11.43;;
53044;SDS011;38930;52.766;6.884;2023-05-07T08:21:04;18.57;;;12.30;;
53044;SDS011;38930;52.766;6.884;2023-05-07T08:23:29;19.00;;;12.80;;
53044;SDS011;38930;52.766;6.884;2023-05-07T08:25:55;16.25;;;11.82;;
53044;SDS011;38930;52.766;6.884;2023-05-07T08:28:21;18.30;;;12.03;;
53044;SDS011;38930;52.766;6.884;2023-05-07T08:30:46;20.23;;;11.73;;
53044;SDS011;38930;52.766;6.884;2023-05-07T08:33:12;19.33;;;12.23;;
53044;SDS011;38930;52.766;6.884;2023-05-07T08:35:38;18.83;;;12.57;;
53044;SDS011;38930;52.766;6.884;2023-05-07T08:38:03;19.27;;;12.37;;
53044;SDS011;38930;52.766;6.884;2023-05-07T08:40:29;18.65;;;11.93;;
53044;SDS011;38930;52.766;6.884;2023-05-07T08:43:03;16.90;;;10.77;;
53044;SDS011;38930;52.766;6.884;2023-05-07T08:45:33;18.27;;;12.77;;
53044;SDS011;38930;52.766;6.884;2023-05-07T08:48:01;17.08;;;12.10;;
53044;SDS011;38930;52.766;6.884;2023-05-07T08:50:28;16.45;;;11.32;;
53044;SDS011;38930;52.766;6.884;2023-05-07T08:52:54;16.27;;;11.43;;
53044;SDS011;38930;52.766;6.884;2023-05-07T08:55:21;17.08;;;11.90;;
53044;SDS011;38930;52.766;6.884;2023-05-07T08:57:47;16.83;;;10.38;;
53044;SDS011;38930;52.766;6.884;2023-05-07T09:00:13;15.97;;;11.00;;
53044;SDS011;38930;52.766;6.884;2023-05-07T09:02:39;15.77;;;10.50;;
53044;SDS011;38930;52.766;6.884;2023-05-07T09:05:05;14.80;;;10.30;;
53044;SDS011;38930;52.766;6.884;2023-05-07T09:07:31;16.05;;;11.35;;
53044;SDS011;38930;52.766;6.884;2023-05-07T09:09:57;18.60;;;10.87;;
53044;SDS011;38930;52.766;6.884;2023-05-07T09:12:23;14.67;;;10.23;;
53044;SDS011;38930;52.766;6.884;2023-05-07T09:14:49;14.83;;;10.47;;
53044;SDS011;38930;52.766;6.884;2023-05-07T09:17:15;13.87;;;10.20;;
53044;SDS011;38930;52.766;6.884;2023-05-07T09:19:42;13.18;;;9.50;;
53044;SDS011;38930;52.766;6.884;2023-05-07T09:22:11;14.98;;;11.32;;
53044;SDS011;38930;52.766;6.884;2023-05-07T09:24:37;15.45;;;10.57;;
53044;SDS011;38930;52.766;6.884;2023-05-07T09:27:07;13.13;;;10.00;;
53044;SDS011;38930;52.766;6.884;2023-05-07T09:29:34;14.65;;;10.27;;
53044;SDS011;38930;52.766;6.884;2023-05-07T09:32:01;16.03;;;10.27;;
53044;SDS011;38930;52.766;6.884;2023-05-07T09:34:28;15.25;;;9.82;;
53044;SDS011;38930;52.766;6.884;2023-05-07T09:36:55;13.82;;;10.10;;
53044;SDS011;38930;52.766;6.884;2023-05-07T09:39:21;14.65;;;10.60;;
53044;SDS011;38930;52.766;6.884;2023-05-07T09:41:48;14.23;;;10.02;;
53044;SDS011;38930;52.766;6.884;2023-05-07T09:44:14;13.20;;;8.98;;
53044;SDS011;38930;52.766;6.884;2023-05-07T09:46:42;14.00;;;10.17;;
53044;SDS011;38930;52.766;6.884;2023-05-07T09:49:20;11.95;;;9.63;;
53044;SDS011;38930;52.766;6.884;2023-05-07T09:51:49;12.93;;;9.48;;
53044;SDS011;38930;52.766;6.884;2023-05-07T09:54:16;13.85;;;9.93;;
53044;SDS011;38930;52.766;6.884;2023-05-07T09:56:43;13.50;;;9.77;;
53044;SDS011;38930;52.766;6.884;2023-05-07T09:59:13;11.88;;;9.48;;
53044;SDS011;38930;52.766;6.884;2023-05-07T10:01:41;12.85;;;9.15;;
53044;SDS011;38930;52.766;6.884;2023-05-07T10:04:08;12.90;;;9.07;;
53044;SDS011;38930;52.766;6.884;2023-05-07T10:06:34;13.45;;;9.30;;
53044;SDS011;38930;52.766;6.884;2023-05-07T10:09:00;11.90;;;9.13;;
53044;SDS011;38930;52.766;6.884;2023-05-07T10:13:53;11.93;;;9.07;;
53044;SDS011;38930;52.766;6.884;2023-05-07T10:16:19;12.73;;;9.25;;
53044;SDS011;38930;52.766;6.884;2023-05-07T10:21:19;12.57;;;9.45;;
53044;SDS011;38930;52.766;6.884;2023-05-07T10:23:48;20.17;;;11.43;;
53044;SDS011;38930;52.766;6.884;2023-05-07T10:26:15;14.02;;;9.35;;
53044;SDS011;38930;52.766;6.884;2023-05-07T10:28:44;12.77;;;9.02;;
53044;SDS011;38930;52.766;6.884;2023-05-07T10:34:27;14.82;;;8.90;;
53044;SDS011;38930;52.766;6.884;2023-05-07T10:36:57;12.82;;;10.00;;
53044;SDS011;38930;52.766;6.884;2023-05-07T10:39:23;12.77;;;9.48;;
53044;SDS011;38930;52.766;6.884;2023-05-07T10:41:49;11.13;;;8.43;;
53044;SDS011;38930;52.766;6.884;2023-05-07T10:44:25;11.67;;;8.43;;
53044;SDS011;38930;52.766;6.884;2023-05-07T10:52:16;11.25;;;8.38;;
53044;SDS011;38930;52.766;6.884;2023-05-07T10:54:46;13.27;;;8.60;;
53044;SDS011;38930;52.766;6.884;2023-05-07T10:59:56;13.65;;;8.70;;
53044;SDS011;38930;52.766;6.884;2023-05-07T11:02:21;14.40;;;9.17;;
53044;SDS011;38930;52.766;6.884;2023-05-07T11:10:22;13.63;;;9.57;;
53044;SDS011;38930;52.766;6.884;2023-05-07T11:12:51;12.73;;;9.63;;
53044;SDS011;38930;52.766;6.884;2023-05-07T11:15:34;10.55;;;9.07;;
53044;SDS011;38930;52.766;6.884;2023-05-07T11:18:01;10.90;;;9.02;;
53044;SDS011;38930;52.766;6.884;2023-05-07T11:26:04;10.55;;;8.45;;
53044;SDS011;38930;52.766;6.884;2023-05-07T11:28:31;13.85;;;9.63;;
53044;SDS011;38930;52.766;6.884;2023-05-07T11:31:03;13.95;;;8.95;;
53044;SDS011;38930;52.766;6.884;2023-05-07T11:33:32;12.18;;;8.77;;
53044;SDS011;38930;52.766;6.884;2023-05-07T11:35:59;11.73;;;8.82;;
53044;SDS011;38930;52.766;6.884;2023-05-07T11:38:26;11.95;;;8.90;;
53044;SDS011;38930;52.766;6.884;2023-05-07T11:40:55;11.35;;;7.93;;
53044;SDS011;38930;52.766;6.884;2023-05-07T11:43:22;12.45;;;9.40;;
53044;SDS011;38930;52.766;6.884;2023-05-07T11:45:48;11.87;;;8.60;;
53044;SDS011;38930;52.766;6.884;2023-05-07T11:48:14;11.18;;;8.93;;
53044;SDS011;38930;52.766;6.884;2023-05-07T11:53:17;10.88;;;8.18;;
53044;SDS011;38930;52.766;6.884;2023-05-07T11:55:43;10.52;;;8.02;;
53044;SDS011;38930;52.766;6.884;2023-05-07T11:58:10;10.50;;;7.67;;
53044;SDS011;38930;52.766;6.884;2023-05-07T12:00:37;10.85;;;8.18;;
53044;SDS011;38930;52.766;6.884;2023-05-07T12:03:03;12.57;;;8.57;;
53044;SDS011;38930;52.766;6.884;2023-05-07T12:05:30;11.18;;;8.63;;
53044;SDS011;38930;52.766;6.884;2023-05-07T12:07:56;9.53;;;8.20;;
53044;SDS011;38930;52.766;6.884;2023-05-07T12:10:22;11.73;;;7.93;;
53044;SDS011;38930;52.766;6.884;2023-05-07T12:12:50;12.35;;;8.90;;
53044;SDS011;38930;52.766;6.884;2023-05-07T12:15:16;16.42;;;9.13;;
53044;SDS011;38930;52.766;6.884;2023-05-07T12:17:42;14.38;;;9.43;;
53044;SDS011;38930;52.766;6.884;2023-05-07T12:20:08;11.68;;;8.65;;
53044;SDS011;38930;52.766;6.884;2023-05-07T12:25:01;12.32;;;8.43;;
53044;SDS011;38930;52.766;6.884;2023-05-07T12:27:27;10.70;;;8.57;;
53044;SDS011;38930;52.766;6.884;2023-05-07T12:29:53;9.33;;;8.07;;
53044;SDS011;38930;52.766;6.884;2023-05-07T12:32:19;11.27;;;8.77;;
53044;SDS011;38930;52.766;6.884;2023-05-07T12:34:46;10.38;;;8.27;;
53044;SDS011;38930;52.766;6.884;2023-05-07T12:37:14;12.00;;;7.80;;
53044;SDS011;38930;52.766;6.884;2023-05-07T12:39:44;9.73;;;7.77;;
53044;SDS011;38930;52.766;6.884;2023-05-07T12:42:14;9.77;;;8.02;;
53044;SDS011;38930;52.766;6.884;2023-05-07T12:44:41;10.05;;;8.10;;
53044;SDS011;38930;52.766;6.884;2023-05-07T12:47:10;10.15;;;7.75;;
53044;SDS011;38930;52.766;6.884;2023-05-07T12:52:04;9.32;;;7.60;;
53044;SDS011;38930;52.766;6.884;2023-05-07T12:57:00;10.98;;;7.53;;
53044;SDS011;38930;52.766;6.884;2023-05-07T13:01:58;9.10;;;7.30;;
53044;SDS011;38930;52.766;6.884;2023-05-07T13:04:24;8.57;;;7.07;;
53044;SDS011;38930;52.766;6.884;2023-05-07T13:06:50;10.38;;;8.35;;
53044;SDS011;38930;52.766;6.884;2023-05-07T13:09:16;9.73;;;7.77;;
53044;SDS011;38930;52.766;6.884;2023-05-07T13:11:41;8.47;;;7.37;;
53044;SDS011;38930;52.766;6.884;2023-05-07T13:14:07;9.50;;;7.03;;
53044;SDS011;38930;52.766;6.884;2023-05-07T13:16:33;9.93;;;7.20;;
53044;SDS011;38930;52.766;6.884;2023-05-07T13:18:58;9.27;;;6.77;;
53044;SDS011;38930;52.766;6.884;2023-05-07T13:21:24;8.70;;;7.33;;
53044;SDS011;38930;52.766;6.884;2023-05-07T13:23:50;8.73;;;6.82;;
53044;SDS011;38930;52.766;6.884;2023-05-07T13:26:16;9.23;;;7.30;;
53044;SDS011;38930;52.766;6.884;2023-05-07T13:28:41;8.07;;;6.90;;
53044;SDS011;38930;52.766;6.884;2023-05-07T13:31:08;7.75;;;6.57;;
53044;SDS011;38930;52.766;6.884;2023-05-07T13:33:34;8.03;;;6.73;;
53044;SDS011;38930;52.766;6.884;2023-05-07T13:36:00;8.55;;;6.57;;
53044;SDS011;38930;52.766;6.884;2023-05-07T13:38:27;8.77;;;6.68;;
53044;SDS011;38930;52.766;6.884;2023-05-07T13:40:52;8.27;;;6.87;;
53044;SDS011;38930;52.766;6.884;2023-05-07T13:43:18;8.10;;;6.57;;
53044;SDS011;38930;52.766;6.884;2023-05-07T13:45:44;7.50;;;6.40;;
53044;SDS011;38930;52.766;6.884;2023-05-07T13:48:10;8.40;;;6.93;;
53044;SDS011;38930;52.766;6.884;2023-05-07T13:50:35;7.43;;;6.73;;
53044;SDS011;38930;52.766;6.884;2023-05-07T13:53:01;8.27;;;6.43;;
53044;SDS011;38930;52.766;6.884;2023-05-07T13:55:28;9.93;;;6.50;;
53044;SDS011;38930;52.766;6.884;2023-05-07T13:57:58;7.10;;;6.28;;
53044;SDS011;38930;52.766;6.884;2023-05-07T14:00:25;9.93;;;6.32;;
53044;SDS011;38930;52.766;6.884;2023-05-07T14:02:52;8.40;;;6.25;;
53044;SDS011;38930;52.766;6.884;2023-05-07T14:05:18;7.07;;;5.93;;
53044;SDS011;38930;52.766;6.884;2023-05-07T14:07:44;6.70;;;5.77;;
53044;SDS011;38930;52.766;6.884;2023-05-07T14:10:09;9.23;;;6.30;;
53044;SDS011;38930;52.766;6.884;2023-05-07T14:12:36;8.95;;;6.30;;
53044;SDS011;38930;52.766;6.884;2023-05-07T14:15:01;7.20;;;6.07;;
53044;SDS011;38930;52.766;6.884;2023-05-07T14:17:27;8.05;;;6.03;;
53044;SDS011;38930;52.766;6.884;2023-05-07T14:19:53;7.47;;;6.67;;
53044;SDS011;38930;52.766;6.884;2023-05-07T14:22:20;6.88;;;5.97;;
53044;SDS011;38930;52.766;6.884;2023-05-07T14:24:49;7.43;;;5.72;;
53044;SDS011;38930;52.766;6.884;2023-05-07T14:27:15;7.10;;;5.55;;
53044;SDS011;38930;52.766;6.884;2023-05-07T14:29:41;10.75;;;6.38;;
53044;SDS011;38930;52.766;6.884;2023-05-07T14:32:07;7.15;;;5.45;;
53044;SDS011;38930;52.766;6.884;2023-05-07T14:34:33;6.73;;;5.83;;
53044;SDS011;38930;52.766;6.884;2023-05-07T14:36:59;7.57;;;5.00;;
53044;SDS011;38930;52.766;6.884;2023-05-07T14:39:25;6.80;;;5.55;;
53044;SDS011;38930;52.766;6.884;2023-05-07T14:41:51;8.70;;;5.70;;
53044;SDS011;38930;52.766;6.884;2023-05-07T14:44:17;7.70;;;5.13;;
53044;SDS011;38930;52.766;6.884;2023-05-07T14:46:42;8.77;;;6.20;;
53044;SDS011;38930;52.766;6.884;2023-05-07T14:49:08;7.20;;;6.43;;
53044;SDS011;38930;52.766;6.884;2023-05-07T14:51:45;9.02;;;6.57;;
53044;SDS011;38930;52.766;6.884;2023-05-07T14:54:11;8.68;;;5.95;;
53044;SDS011;38930;52.766;6.884;2023-05-07T14:56:37;7.72;;;6.35;;
53044;SDS011;38930;52.766;6.884;2023-05-07T14:59:03;8.07;;;7.03;;
53044;SDS011;38930;52.766;6.884;2023-05-07T15:01:29;7.40;;;6.60;;
53044;SDS011;38930;52.766;6.884;2023-05-07T15:03:55;8.13;;;6.60;;
53044;SDS011;38930;52.766;6.884;2023-05-07T15:06:21;8.30;;;6.87;;
53044;SDS011;38930;52.766;6.884;2023-05-07T15:08:47;9.18;;;6.90;;
53044;SDS011;38930;52.766;6.884;2023-05-07T15:11:13;9.23;;;7.03;;
53044;SDS011;38930;52.766;6.884;2023-05-07T15:13:42;8.53;;;6.20;;